createdAt,value
2022-10-18T00:02:28.218Z,100.00
2022-10-18T00:05:29.657Z,100.00
2022-10-18T00:08:31.095Z,100.00
2022-10-18T00:11:32.810Z,100.00
2022-10-18T00:14:34.200Z,100.00
2022-10-18T00:17:36.454Z,100.00
2022-10-18T00:20:37.975Z,100.00
2022-10-18T00:23:39.667Z,100.00
2022-10-18T00:26:41.066Z,100.00
2022-10-18T00:29:42.532Z,100.00
2022-10-18T00:32:43.993Z,100.00
2022-10-18T00:35:45.447Z,100.00
2022-10-18T00:38:47.741Z,100.00
2022-10-18T00:41:49.976Z,100.00
2022-10-18T00:44:51.353Z,100.00
2022-10-18T00:47:59.789Z,100.00
2022-10-18T00:51:01.262Z,100.00
2022-10-18T00:54:02.852Z,100.00
2022-10-18T00:57:06.001Z,100.00
2022-10-18T01:00:08.506Z,100.00
2022-10-18T01:03:09.984Z,100.00
2022-10-18T01:06:11.438Z,100.00
2022-10-18T01:09:32.137Z,100.00
2022-10-18T01:12:51.572Z,100.00
2022-10-18T01:16:20.978Z,100.00
2022-10-18T01:19:53.300Z,100.00
2022-10-18T01:23:08.757Z,100.00
2022-10-18T01:26:35.084Z,100.00
2022-10-18T01:29:48.449Z,100.00
2022-10-18T01:32:58.563Z,100.00
2022-10-18T01:36:23.169Z,100.00
2022-10-18T01:39:29.570Z,100.00
2022-10-18T01:42:31.789Z,100.00
2022-10-18T01:45:33.362Z,100.00
2022-10-18T01:48:35.814Z,100.00
2022-10-18T01:51:37.260Z,100.00
2022-10-18T01:54:44.317Z,100.00
2022-10-18T01:58:02.736Z,100.00
2022-10-18T02:01:17.489Z,100.00
2022-10-18T02:04:29.206Z,100.00
2022-10-18T02:07:42.419Z,100.00
2022-10-18T02:10:55.610Z,100.00
2022-10-18T02:14:03.270Z,100.00
2022-10-18T02:17:09.636Z,100.00
2022-10-18T02:20:13.523Z,100.00
2022-10-18T02:23:21.100Z,100.00
2022-10-18T02:26:22.652Z,100.00
2022-10-18T02:29:24.173Z,100.00
2022-10-18T02:32:40.753Z,100.00
2022-10-18T02:35:49.555Z,100.00
2022-10-18T02:38:56.332Z,100.00
2022-10-18T02:41:58.124Z,100.00
2022-10-18T02:44:59.525Z,100.00
2022-10-18T02:48:00.935Z,100.00
2022-10-18T02:51:02.328Z,100.00
2022-10-18T02:54:03.833Z,100.00
2022-10-18T02:57:05.236Z,100.00
2022-10-18T03:00:07.859Z,100.00
2022-10-18T03:03:09.295Z,100.00
2022-10-18T03:06:10.693Z,100.00
2022-10-18T03:09:12.128Z,100.00
2022-10-18T03:12:13.578Z,100.00
2022-10-18T03:15:14.978Z,100.00
2022-10-18T03:18:16.398Z,100.00
2022-10-18T03:21:17.795Z,100.00
2022-10-18T03:24:19.217Z,100.00
2022-10-18T03:27:20.629Z,100.00
2022-10-18T03:30:22.039Z,100.00
2022-10-18T03:33:23.418Z,100.00
2022-10-18T03:36:24.883Z,100.00
2022-10-18T03:39:26.270Z,100.00
2022-10-18T03:42:27.695Z,100.00
2022-10-18T03:45:31.299Z,100.00
2022-10-18T03:48:33.132Z,100.00
2022-10-18T03:51:34.549Z,100.00
2022-10-18T03:54:35.954Z,100.00
2022-10-18T03:57:37.374Z,100.00
2022-10-18T04:00:38.787Z,100.00
2022-10-18T04:03:40.181Z,100.00
2022-10-18T04:06:41.795Z,100.00
2022-10-18T04:09:43.200Z,100.00
2022-10-18T04:12:44.573Z,100.00
2022-10-18T04:15:46.012Z,100.00
2022-10-18T04:18:47.444Z,100.00
2022-10-18T04:21:48.839Z,100.00
2022-10-18T04:24:50.244Z,100.00
2022-10-18T04:27:51.689Z,100.00
2022-10-18T04:30:53.574Z,100.00
2022-10-18T04:33:55.053Z,100.00
2022-10-18T04:36:56.452Z,100.00
2022-10-18T04:39:57.870Z,100.00
2022-10-18T04:42:59.311Z,100.00
2022-10-18T04:46:00.772Z,100.00
2022-10-18T04:49:02.422Z,100.00
2022-10-18T04:52:04.319Z,100.00
2022-10-18T04:55:06.208Z,100.00
2022-10-18T04:58:07.624Z,100.00
2022-10-18T05:01:09.056Z,100.00
2022-10-18T05:04:10.565Z,100.00
2022-10-18T05:07:12.012Z,100.00
2022-10-18T05:10:13.414Z,100.00
2022-10-18T05:13:14.924Z,100.00
2022-10-18T05:16:16.326Z,100.00
2022-10-18T05:19:17.730Z,100.00
2022-10-18T05:22:19.216Z,100.00
2022-10-18T05:25:20.633Z,100.00
2022-10-18T05:28:38.778Z,100.00
2022-10-18T05:31:41.379Z,100.00
2022-10-18T05:34:42.797Z,100.00
2022-10-18T05:37:44.209Z,100.00
2022-10-18T05:40:45.630Z,100.00
2022-10-18T05:43:47.033Z,100.00
2022-10-18T05:46:48.433Z,100.00
2022-10-18T05:49:49.833Z,100.00
2022-10-18T05:52:51.250Z,100.00
2022-10-18T05:55:52.675Z,100.00
2022-10-18T05:58:54.185Z,100.00
2022-10-18T06:01:55.614Z,100.00
2022-10-18T06:04:57.003Z,100.00
2022-10-18T06:07:58.565Z,100.00
2022-10-18T06:11:00.412Z,100.00
2022-10-18T06:14:01.897Z,100.00
2022-10-18T06:17:03.527Z,100.00
2022-10-18T06:20:05.620Z,100.00
2022-10-18T06:23:07.081Z,100.00
2022-10-18T06:26:10.870Z,100.00
2022-10-18T06:29:12.379Z,100.00
2022-10-18T06:32:13.932Z,100.00
2022-10-18T06:35:15.381Z,100.00
2022-10-18T06:38:16.808Z,100.00
2022-10-18T06:41:18.248Z,100.00
2022-10-18T06:44:20.843Z,100.00
2022-10-18T06:47:22.241Z,100.00
2022-10-18T06:50:23.783Z,100.00
2022-10-18T06:53:30.840Z,100.00
2022-10-18T06:56:32.496Z,100.00
2022-10-18T06:59:33.902Z,100.00
2022-10-18T07:02:35.357Z,100.00
2022-10-18T07:05:36.877Z,100.00
2022-10-18T07:08:39.530Z,100.00
2022-10-18T07:11:40.926Z,100.00
2022-10-18T07:14:42.344Z,100.00
2022-10-18T07:17:44.552Z,100.00
2022-10-18T07:20:45.963Z,100.00
2022-10-18T07:23:48.191Z,100.00
2022-10-18T07:26:50.129Z,100.00
2022-10-18T07:29:51.520Z,100.00
2022-10-18T07:32:52.929Z,100.00
2022-10-18T07:35:54.329Z,100.00
2022-10-18T07:38:55.974Z,100.00
2022-10-18T07:41:57.613Z,100.00
2022-10-18T07:44:59.021Z,100.00
2022-10-18T07:48:00.447Z,100.00
2022-10-18T07:51:02.300Z,100.00
2022-10-18T07:54:03.803Z,100.00
2022-10-18T07:57:05.235Z,100.00
2022-10-18T08:00:07.346Z,100.00
2022-10-18T08:03:12.970Z,100.00
2022-10-18T08:06:16.596Z,100.00
2022-10-18T08:09:18.031Z,100.00
2022-10-18T08:12:19.433Z,100.00
2022-10-18T08:15:20.853Z,100.00
2022-10-18T08:18:22.291Z,100.00
2022-10-18T08:21:23.698Z,100.00
2022-10-18T08:24:25.159Z,100.00
2022-10-18T08:27:26.648Z,100.00
2022-10-18T08:30:28.153Z,100.00
2022-10-18T08:33:29.577Z,100.00
2022-10-18T08:36:31.006Z,100.00
2022-10-18T08:39:32.429Z,100.00
2022-10-18T08:42:42.722Z,100.00
2022-10-18T08:45:44.357Z,100.00
2022-10-18T08:48:51.218Z,100.00
2022-10-18T08:51:53.911Z,100.00
2022-10-18T08:55:11.274Z,100.00
2022-10-18T08:58:20.379Z,100.00
2022-10-18T09:01:27.737Z,100.00
2022-10-18T09:04:44.292Z,100.00
2022-10-18T09:08:09.985Z,100.00
2022-10-18T09:11:23.361Z,100.00
2022-10-18T09:14:52.584Z,100.00
2022-10-18T09:18:07.141Z,100.00
2022-10-18T09:21:18.599Z,100.00
2022-10-18T09:24:34.169Z,100.00
2022-10-18T09:27:52.087Z,100.00
2022-10-18T09:31:10.818Z,100.00
2022-10-18T09:34:31.356Z,100.00
2022-10-18T09:37:34.795Z,100.00
2022-10-18T09:40:54.081Z,98.67
2022-10-18T09:44:12.954Z,98.95
2022-10-18T09:47:19.295Z,97.82
2022-10-18T09:50:29.579Z,97.77
2022-10-18T09:53:41.452Z,94.00
2022-10-18T09:57:01.039Z,90.98
2022-10-18T10:00:04.790Z,92.93
2022-10-18T10:03:11.296Z,90.34
2022-10-18T10:06:12.660Z,85.71
2022-10-18T10:09:15.935Z,89.58
2022-10-18T10:12:25.694Z,84.89
2022-10-18T10:15:31.292Z,83.73
2022-10-18T10:18:38.960Z,84.57
2022-10-18T10:21:40.417Z,84.25
2022-10-18T10:24:53.345Z,80.19
2022-10-18T10:27:54.942Z,81.49
2022-10-18T10:31:26.485Z,79.95
2022-10-18T10:34:29.433Z,82.93
2022-10-18T10:37:36.191Z,76.06
2022-10-18T10:40:48.692Z,78.10
2022-10-18T10:43:50.940Z,74.92
2022-10-18T10:46:53.947Z,75.96
2022-10-18T10:49:56.221Z,66.95
2022-10-18T10:52:58.390Z,68.09
2022-10-18T10:56:00.266Z,68.00
2022-10-18T10:59:23.335Z,68.26
2022-10-18T11:02:33.160Z,67.20
2022-10-18T11:05:44.980Z,68.85
2022-10-18T11:11:59.425Z,69.41
2022-10-18T11:15:09.794Z,71.31
2022-10-18T11:18:14.137Z,69.20
2022-10-18T11:21:31.098Z,69.06
2022-10-18T11:24:35.325Z,70.15
2022-10-18T11:27:54.889Z,67.75
2022-10-18T11:31:09.949Z,68.51
2022-10-18T11:34:40.838Z,66.44
2022-10-18T11:38:03.286Z,65.93
2022-10-18T11:41:36.925Z,65.05
2022-10-18T11:44:48.232Z,66.30
2022-10-18T11:48:02.776Z,64.32
2022-10-18T11:52:03.111Z,62.43
2022-10-18T11:55:30.362Z,64.29
2022-10-18T11:58:46.560Z,59.98
2022-10-18T12:02:38.962Z,58.15
2022-10-18T12:05:44.052Z,59.68
2022-10-18T12:08:49.641Z,61.50
2022-10-18T12:11:57.107Z,60.16
2022-10-18T12:15:05.231Z,60.68
2022-10-18T12:18:14.589Z,59.24
2022-10-18T12:21:24.549Z,60.56
2022-10-18T12:24:30.458Z,63.75
2022-10-18T12:27:40.069Z,62.29
2022-10-18T12:31:04.727Z,64.84
2022-10-18T12:34:21.762Z,61.40
2022-10-18T12:37:35.115Z,64.34
2022-10-18T12:40:49.360Z,63.97
2022-10-18T12:43:58.709Z,62.99
2022-10-18T12:47:06.265Z,63.14
2022-10-18T12:50:29.050Z,61.78
2022-10-18T12:53:31.892Z,60.53
2022-10-18T12:56:42.053Z,64.28
2022-10-18T12:59:43.940Z,62.58
2022-10-18T13:02:45.369Z,62.24
2022-10-18T13:05:52.758Z,63.64
2022-10-18T13:09:17.566Z,65.01
2022-10-18T13:12:18.926Z,64.80
2022-10-18T13:15:34.866Z,64.58
2022-10-18T13:18:59.762Z,62.89
2022-10-18T13:22:25.675Z,65.34
2022-10-18T13:25:39.652Z,64.66
2022-10-18T13:28:54.957Z,65.41
2022-10-18T13:32:01.455Z,64.57
2022-10-18T13:35:03.265Z,65.35
2022-10-18T13:38:26.892Z,64.14
2022-10-18T13:41:57.579Z,64.64
2022-10-18T13:45:30.667Z,63.53
2022-10-18T13:48:35.466Z,65.00
2022-10-18T13:52:15.057Z,65.88
2022-10-18T13:55:33.541Z,66.78
2022-10-18T13:58:53.780Z,65.89
2022-10-18T14:02:51.802Z,65.98
2022-10-18T14:06:20.512Z,66.39
2022-10-18T14:09:43.698Z,66.43
2022-10-18T14:12:51.933Z,66.78
2022-10-18T14:16:03.718Z,66.64
2022-10-18T14:19:20.671Z,67.09
2022-10-18T14:22:26.476Z,66.18
2022-10-18T14:25:27.796Z,66.66
2022-10-18T14:28:47.947Z,67.89
2022-10-18T14:31:54.509Z,67.40
2022-10-18T14:35:20.626Z,67.55
2022-10-18T14:38:18.537Z,68.68
2022-10-18T14:41:19.873Z,67.04
2022-10-18T14:44:26.056Z,67.21
2022-10-18T14:47:28.755Z,68.24
2022-10-18T14:50:30.907Z,68.25
2022-10-18T14:53:37.259Z,67.56
2022-10-18T14:56:41.289Z,63.83
2022-10-18T14:59:49.162Z,64.38
2022-10-18T15:02:50.875Z,62.19
2022-10-18T15:05:59.406Z,62.97
2022-10-18T15:09:03.132Z,64.75
2022-10-18T15:12:06.807Z,64.55
2022-10-18T15:15:16.873Z,65.88
2022-10-18T15:18:26.637Z,67.10
2022-10-18T15:21:28.537Z,68.65
2022-10-18T15:24:39.377Z,70.10
2022-10-18T15:27:52.080Z,71.51
2022-10-18T15:30:53.782Z,72.22
2022-10-18T15:34:09.799Z,75.89
2022-10-18T15:37:29.833Z,77.71
2022-10-18T15:40:35.297Z,78.03
2022-10-18T15:43:36.793Z,78.79
2022-10-18T15:46:38.970Z,79.90
2022-10-18T15:49:46.338Z,80.49
2022-10-18T15:52:47.821Z,80.59
2022-10-18T15:56:05.367Z,80.76
2022-10-18T15:59:23.324Z,81.76
2022-10-18T16:02:24.810Z,81.63
2022-10-18T16:05:26.230Z,81.99
2022-10-18T16:08:29.021Z,82.79
2022-10-18T16:11:30.412Z,83.35
2022-10-18T16:14:32.141Z,84.21
2022-10-18T16:17:33.939Z,85.09
2022-10-18T16:20:35.525Z,85.98
2022-10-18T16:23:36.934Z,86.80
2022-10-18T16:26:38.634Z,87.36
2022-10-18T16:29:40.065Z,89.43
2022-10-18T16:32:41.573Z,89.66
2022-10-18T16:35:42.977Z,91.24
2022-10-18T16:38:45.326Z,92.37
2022-10-18T16:41:47.588Z,93.02
2022-10-18T16:44:49.013Z,93.70
2022-10-18T16:47:50.431Z,94.04
2022-10-18T16:50:54.560Z,94.12
2022-10-18T16:53:55.912Z,95.85
2022-10-18T16:56:57.358Z,96.67
2022-10-18T16:59:58.773Z,97.23
2022-10-18T17:03:00.250Z,98.31
2022-10-18T17:06:01.998Z,98.99
2022-10-18T17:09:03.748Z,100.00
2022-10-18T17:12:05.410Z,100.00
2022-10-18T17:15:08.173Z,100.00
2022-10-18T17:18:19.164Z,100.00
2022-10-18T17:21:21.054Z,100.00
2022-10-18T17:24:22.480Z,100.00
2022-10-18T17:27:24.144Z,100.00
2022-10-18T17:30:25.565Z,100.00
2022-10-18T17:33:26.959Z,100.00
2022-10-18T17:36:32.279Z,100.00
2022-10-18T17:39:33.922Z,100.00
2022-10-18T17:42:35.448Z,100.00
2022-10-18T17:45:37.164Z,100.00
2022-10-18T17:48:38.589Z,100.00
2022-10-18T17:51:40.069Z,100.00
2022-10-18T17:54:41.522Z,100.00
2022-10-18T17:57:43.723Z,100.00
2022-10-18T18:00:45.298Z,100.00
2022-10-18T18:03:47.423Z,100.00
2022-10-18T18:06:48.948Z,100.00
2022-10-18T18:09:50.377Z,100.00
2022-10-18T18:12:51.859Z,100.00
2022-10-18T18:15:53.352Z,100.00
2022-10-18T18:18:56.921Z,100.00
2022-10-18T18:21:58.521Z,100.00
2022-10-18T18:25:00.129Z,100.00
2022-10-18T18:28:05.236Z,100.00
2022-10-18T18:31:16.768Z,100.00
2022-10-18T18:34:19.168Z,100.00
2022-10-18T18:37:20.621Z,100.00
2022-10-18T18:40:22.091Z,100.00
2022-10-18T18:43:23.755Z,100.00
2022-10-18T18:46:27.564Z,100.00
2022-10-18T18:49:28.961Z,100.00
2022-10-18T18:52:30.567Z,100.00
2022-10-18T18:55:32.217Z,100.00
2022-10-18T18:58:38.856Z,100.00
2022-10-18T19:01:40.938Z,100.00
2022-10-18T19:04:42.368Z,100.00
2022-10-18T19:07:43.829Z,100.00
2022-10-18T19:10:45.244Z,100.00
2022-10-18T19:13:47.829Z,100.00
2022-10-18T19:16:54.250Z,100.00
2022-10-18T19:19:55.680Z,100.00
2022-10-18T19:22:57.065Z,100.00
2022-10-18T19:26:24.208Z,100.00
2022-10-18T19:29:28.640Z,100.00
2022-10-18T19:32:30.124Z,100.00
2022-10-18T19:35:31.556Z,100.00
2022-10-18T19:38:32.973Z,100.00
2022-10-18T19:41:34.472Z,100.00
2022-10-18T19:44:37.035Z,100.00
2022-10-18T19:47:38.553Z,100.00
2022-10-18T19:50:40.103Z,100.00
2022-10-18T19:53:41.509Z,100.00
2022-10-18T19:56:43.300Z,100.00
2022-10-18T19:59:44.715Z,100.00
2022-10-18T20:02:46.171Z,100.00
2022-10-18T20:05:53.411Z,100.00
2022-10-18T20:08:55.087Z,100.00
2022-10-18T20:11:56.562Z,100.00
2022-10-18T20:14:57.978Z,100.00
2022-10-18T20:17:59.391Z,100.00
2022-10-18T20:21:04.878Z,100.00
2022-10-18T20:24:06.905Z,100.00
2022-10-18T20:27:08.355Z,100.00
2022-10-18T20:30:11.394Z,100.00
2022-10-18T20:33:12.988Z,100.00
2022-10-18T20:36:17.098Z,100.00
2022-10-18T20:39:18.564Z,100.00
2022-10-18T20:42:20.021Z,100.00
2022-10-18T20:45:21.428Z,100.00
2022-10-18T20:48:22.962Z,100.00
2022-10-18T20:51:24.834Z,100.00
2022-10-18T20:54:26.339Z,100.00
2022-10-18T20:57:31.680Z,100.00
2022-10-18T21:00:35.773Z,100.00
2022-10-18T21:03:42.720Z,100.00
2022-10-18T21:06:44.266Z,100.00
2022-10-18T21:09:45.666Z,100.00
2022-10-18T21:12:47.760Z,100.00
2022-10-18T21:15:59.489Z,100.00
2022-10-18T21:19:05.833Z,100.00
2022-10-18T21:22:07.243Z,100.00
2022-10-18T21:25:08.904Z,100.00
2022-10-18T21:28:10.351Z,100.00
2022-10-18T21:31:20.751Z,100.00
2022-10-18T21:34:22.269Z,100.00
2022-10-18T21:37:23.684Z,100.00
2022-10-18T21:40:25.116Z,100.00
2022-10-18T21:43:27.043Z,100.00
2022-10-18T21:46:28.569Z,100.00
2022-10-18T21:49:29.959Z,100.00
2022-10-18T21:52:31.620Z,100.00
2022-10-18T21:55:35.823Z,100.00
2022-10-18T21:58:37.707Z,100.00
2022-10-18T22:01:40.031Z,100.00
2022-10-18T22:04:41.450Z,100.00
2022-10-18T22:07:42.839Z,100.00
2022-10-18T22:10:44.240Z,100.00
2022-10-18T22:13:46.132Z,100.00
2022-10-18T22:16:47.849Z,100.00
2022-10-18T22:19:49.232Z,100.00
2022-10-18T22:22:52.488Z,100.00
2022-10-18T22:25:53.887Z,100.00
2022-10-18T22:28:57.540Z,100.00
2022-10-18T22:31:59.025Z,100.00
2022-10-18T22:35:00.441Z,100.00
2022-10-18T22:38:01.853Z,100.00
2022-10-18T22:41:07.592Z,100.00
2022-10-18T22:44:11.481Z,100.00
2022-10-18T22:47:12.933Z,100.00
2022-10-18T22:50:14.375Z,100.00
2022-10-18T22:53:15.766Z,100.00
2022-10-18T22:56:19.617Z,100.00
2022-10-18T22:59:21.030Z,100.00
2022-10-18T23:02:22.479Z,100.00
2022-10-18T23:05:23.899Z,100.00
2022-10-18T23:08:26.377Z,100.00
2022-10-18T23:11:28.464Z,100.00
2022-10-18T23:14:29.872Z,100.00
2022-10-18T23:17:31.692Z,100.00
2022-10-18T23:20:33.434Z,100.00
2022-10-18T23:23:36.472Z,100.00
2022-10-18T23:26:37.868Z,100.00
2022-10-18T23:29:39.289Z,100.00
2022-10-18T23:32:40.705Z,100.00
2022-10-18T23:35:42.117Z,100.00
2022-10-18T23:38:44.029Z,100.00
2022-10-18T23:41:45.430Z,100.00
2022-10-18T23:44:46.836Z,100.00
2022-10-18T23:47:48.250Z,100.00
2022-10-18T23:50:49.762Z,100.00
2022-10-18T23:53:51.192Z,100.00
2022-10-18T23:56:52.581Z,100.00
2022-10-18T23:59:53.987Z,100.00
